Time;durP1;ratioP1;P1;durP2;ratioP2;P2;SDS_P1;SDS_P2;PMS_P1;PMS_P2;Temp;Humidity;BMP_temperature;BMP_pressure;BME280_temperature;BME280_humidity;BME280_pressure;Samples;Min_cycle;Max_cycle;Signal;HPM_P1;HPM_P2
2022/02/16 00:02:11;;;;;;;1.80;1.70;;;5.60;99.90;;;;;;6242126;23;20032;-78
2022/02/16 00:04:37;;;;;;;3.83;1.90;;;5.60;99.90;;;;;;6241269;23;20115;-79
2022/02/16 00:07:04;;;;;;;1.67;1.37;;;5.60;99.90;;;;;;6241667;23;20451;-79
2022/02/16 00:09:31;;;;;;;6.33;1.70;;;5.60;99.90;;;;;;6242355;23;20024;-79
2022/02/16 00:11:58;;;;;;;2.67;1.43;;;5.70;99.90;;;;;;6241939;23;20646;-79
2022/02/16 00:14:25;;;;;;;3.43;2.07;;;5.70;99.90;;;;;;6241770;23;20017;-78
2022/02/16 00:16:51;;;;;;;2.83;1.67;;;5.60;99.90;;;;;;6241646;23;20070;-79
2022/02/16 00:19:17;;;;;;;1.77;1.60;;;5.60;99.90;;;;;;6241936;23;20024;-79
2022/02/16 00:21:43;;;;;;;2.23;1.97;;;5.60;99.90;;;;;;6242074;23;20016;-79
2022/02/16 00:24:09;;;;;;;2.23;1.53;;;5.60;99.90;;;;;;6241715;23;20039;-78
2022/02/16 00:26:35;;;;;;;1.70;1.53;;;5.60;99.90;;;;;;6242295;23;20095;-79
2022/02/16 00:29:02;;;;;;;1.40;1.03;;;5.60;99.90;;;;;;6242352;23;20327;-78
2022/02/16 00:31:30;;;;;;;1.60;1.47;;;5.70;99.90;;;;;;6242584;23;20027;-78
2022/02/16 00:33:56;;;;;;;2.40;1.43;;;5.60;99.90;;;;;;6242525;23;20020;-78
2022/02/16 00:36:22;;;;;;;1.80;1.40;;;5.60;99.90;;;;;;6241986;23;20028;-77
2022/02/16 00:38:48;;;;;;;2.37;1.23;;;5.70;99.90;;;;;;6242330;23;20020;-78
2022/02/16 00:41:14;;;;;;;2.23;1.57;;;5.70;99.90;;;;;;6242299;23;20024;-77
2022/02/16 00:43:40;;;;;;;1.63;1.37;;;5.70;99.90;;;;;;6242485;23;20090;-79
2022/02/16 00:46:06;;;;;;;6.13;2.13;;;5.70;99.90;;;;;;6242533;23;20031;-79
2022/02/16 00:48:33;;;;;;;1.97;1.80;;;5.70;99.90;;;;;;6243323;23;20028;-79
2022/02/16 00:50:59;;;;;;;1.60;1.47;;;5.70;99.90;;;;;;6242381;23;20447;-78
2022/02/16 00:53:25;;;;;;;1.77;1.40;;;5.70;99.90;;;;;;6242753;23;20059;-78
2022/02/16 00:55:52;;;;;;;1.47;1.17;;;5.70;99.90;;;;;;6242697;23;20376;-78
2022/02/16 00:58:18;;;;;;;3.80;2.43;;;5.80;99.90;;;;;;6242713;23;20095;-79
2022/02/16 01:00:45;;;;;;;1.43;1.30;;;5.80;99.90;;;;;;6242333;23;20537;-78
2022/02/16 01:03:11;;;;;;;6.10;3.20;;;5.90;99.90;;;;;;6241869;23;20024;-78
2022/02/16 01:05:38;;;;;;;18.00;9.00;;;5.90;99.90;;;;;;6242130;23;20032;-80
2022/02/16 01:08:07;;;;;;;4.23;2.00;;;6.00;99.90;;;;;;6241772;23;20457;-79
2022/02/16 01:10:34;;;;;;;1.63;1.50;;;5.90;99.90;;;;;;6241990;23;20020;-78
2022/02/16 01:13:00;;;;;;;2.03;1.40;;;5.90;99.90;;;;;;6241886;23;20084;-78
2022/02/16 01:15:26;;;;;;;2.80;2.00;;;5.90;99.90;;;;;;6241471;23;20028;-78
2022/02/16 01:17:52;;;;;;;4.30;1.80;;;5.80;99.90;;;;;;6241908;23;20094;-78
2022/02/16 01:20:18;;;;;;;1.83;1.63;;;5.80;99.90;;;;;;6241635;23;20020;-77
2022/02/16 01:22:44;;;;;;;1.53;1.43;;;5.70;99.90;;;;;;6242521;23;20031;-78
2022/02/16 01:25:10;;;;;;;2.10;1.40;;;5.70;99.90;;;;;;6240400;23;20050;-78
2022/02/16 01:27:37;;;;;;;2.83;1.70;;;5.70;99.90;;;;;;6242398;23;20054;-79
2022/02/16 01:30:03;;;;;;;1.50;1.40;;;5.70;99.90;;;;;;6241767;23;20024;-78
2022/02/16 01:32:29;;;;;;;2.13;1.80;;;5.70;99.90;;;;;;6241778;23;20031;-77
2022/02/16 01:34:55;;;;;;;2.73;1.63;;;5.60;99.90;;;;;;6238018;23;20027;-77
2022/02/16 01:37:22;;;;;;;1.67;1.57;;;5.60;99.90;;;;;;6242244;23;20028;-78
2022/02/16 01:39:48;;;;;;;3.33;1.70;;;5.50;99.90;;;;;;6242037;23;20109;-78
2022/02/16 01:42:16;;;;;;;3.53;1.47;;;5.50;99.90;;;;;;6241883;23;20020;-77
2022/02/16 01:44:42;;;;;;;5.33;1.70;;;5.50;99.90;;;;;;6241807;23;20103;-77
2022/02/16 01:47:08;;;;;;;2.63;2.30;;;5.40;99.90;;;;;;6241911;23;20347;-78
2022/02/16 01:49:36;;;;;;;4.03;2.30;;;5.30;99.90;;;;;;6242285;23;20020;-78
2022/02/16 01:52:04;;;;;;;3.93;2.20;;;5.30;99.90;;;;;;6242197;23;20032;-78
2022/02/16 01:54:30;;;;;;;2.40;2.20;;;5.20;99.90;;;;;;6243075;23;20042;-78
2022/02/16 01:56:57;;;;;;;1.83;1.40;;;5.20;99.90;;;;;;6247366;23;20451;-77
2022/02/16 01:59:24;;;;;;;3.30;1.60;;;5.20;99.90;;;;;;6245883;23;20020;-77
2022/02/16 02:01:51;;;;;;;2.57;1.93;;;5.20;99.90;;;;;;6247167;23;20078;-76
2022/02/16 02:04:18;;;;;;;3.73;2.47;;;5.10;99.90;;;;;;6250980;23;20020;-77
2022/02/16 02:06:45;;;;;;;3.63;1.23;;;5.10;99.90;;;;;;6252083;23;20466;-78
2022/02/16 02:09:12;;;;;;;2.37;1.93;;;5.00;99.90;;;;;;6249243;23;20023;-77
2022/02/16 02:11:38;;;;;;;2.00;1.67;;;5.00;99.90;;;;;;6249223;23;20108;-77
2022/02/16 02:14:07;;;;;;;3.00;2.43;;;4.90;99.90;;;;;;6249227;23;21580;-77
2022/02/16 02:16:33;;;;;;;9.47;2.40;;;4.90;99.90;;;;;;6248778;23;20095;-78
2022/02/16 02:19:00;;;;;;;4.40;2.47;;;4.80;99.90;;;;;;6248108;23;20032;-77
2022/02/16 02:21:27;;;;;;;2.57;1.87;;;4.70;99.90;;;;;;6247542;23;20513;-76
2022/02/16 02:23:55;;;;;;;3.07;1.97;;;4.70;99.90;;;;;;6245922;23;20028;-78
2022/02/16 02:26:21;;;;;;;3.57;2.57;;;4.70;99.90;;;;;;6240299;23;20032;-78
2022/02/16 02:28:47;;;;;;;2.27;1.70;;;4.70;99.90;;;;;;6244495;23;20016;-79
2022/02/16 02:31:14;;;;;;;2.67;2.10;;;4.60;99.90;;;;;;6244702;23;20024;-78
2022/02/16 02:33:40;;;;;;;5.30;2.23;;;4.60;99.90;;;;;;6243005;23;20039;-78
2022/02/16 02:36:08;;;;;;;3.97;2.73;;;4.60;99.90;;;;;;6242488;23;20931;-76
2022/02/16 02:38:35;;;;;;;4.27;3.03;;;4.60;99.90;;;;;;6238809;23;20032;-76
2022/02/16 02:41:03;;;;;;;2.93;2.60;;;4.60;99.90;;;;;;6244300;23;20024;-77
2022/02/16 02:43:30;;;;;;;2.20;2.00;;;4.60;99.90;;;;;;6243685;23;20028;-77
2022/02/16 02:45:57;;;;;;;3.00;1.90;;;4.60;99.90;;;;;;6244547;23;20047;-78
2022/02/16 02:48:25;;;;;;;5.07;2.47;;;4.60;99.90;;;;;;6242886;23;20024;-76
2022/02/16 02:50:52;;;;;;;3.57;2.60;;;4.60;99.90;;;;;;6241957;23;20020;-77
2022/02/16 02:53:18;;;;;;;2.77;2.30;;;4.60;99.90;;;;;;6241729;23;20410;-78
2022/02/16 02:55:44;;;;;;;3.97;3.37;;;4.60;99.90;;;;;;6239331;23;20017;-78
2022/02/16 02:58:11;;;;;;;2.57;2.37;;;4.60;99.90;;;;;;6241608;23;20025;-78
2022/02/16 03:00:37;;;;;;;3.90;3.60;;;4.60;99.90;;;;;;6241009;23;20335;-77
2022/02/16 03:03:04;;;;;;;4.87;2.47;;;4.60;99.90;;;;;;6241445;23;20032;-77
2022/02/16 03:05:30;;;;;;;3.43;2.53;;;4.60;99.90;;;;;;6240576;23;20074;-77
2022/02/16 03:07:56;;;;;;;7.20;3.67;;;4.60;99.90;;;;;;6241797;23;20020;-78
2022/02/16 03:10:22;;;;;;;2.97;2.23;;;4.70;99.90;;;;;;6240767;23;20027;-78
2022/02/16 03:12:51;;;;;;;1.57;1.47;;;4.60;99.90;;;;;;6241298;23;20025;-77
2022/02/16 03:15:17;;;;;;;4.83;2.67;;;4.70;99.90;;;;;;6241199;23;20486;-77
2022/02/16 03:17:43;;;;;;;3.07;2.47;;;4.70;99.90;;;;;;6241149;23;20451;-77
2022/02/16 03:20:10;;;;;;;4.30;2.53;;;4.70;99.90;;;;;;6240830;23;20024;-78
2022/02/16 03:22:37;;;;;;;2.83;2.53;;;4.70;99.90;;;;;;6240319;23;20027;-77
2022/02/16 03:25:04;;;;;;;3.57;2.57;;;4.70;99.90;;;;;;6240694;23;20024;-77
2022/02/16 03:27:30;;;;;;;3.73;2.57;;;4.70;99.90;;;;;;6240918;23;20338;-78
2022/02/16 03:29:57;;;;;;;2.53;1.70;;;4.80;99.90;;;;;;6240744;23;20032;-77
2022/02/16 03:32:23;;;;;;;5.73;2.83;;;4.80;99.90;;;;;;6241367;23;20028;-78
2022/02/16 03:34:49;;;;;;;3.60;2.43;;;4.80;99.90;;;;;;6244275;23;20077;-78
2022/02/16 03:37:15;;;;;;;4.97;2.37;;;4.80;99.90;;;;;;6249834;23;20042;-78
2022/02/16 03:39:44;;;;;;;2.63;2.43;;;4.90;99.90;;;;;;6248582;23;20020;-77
2022/02/16 03:42:14;;;;;;;3.77;2.27;;;4.90;99.90;;;;;;6246061;23;20024;-78
2022/02/16 03:44:40;;;;;;;5.77;2.33;;;5.00;99.90;;;;;;6241527;23;20032;-78
2022/02/16 03:47:07;;;;;;;3.10;2.43;;;5.00;99.90;;;;;;6241987;23;20016;-78
2022/02/16 03:49:33;;;;;;;3.40;2.67;;;5.10;99.90;;;;;;6248382;23;20074;-78
2022/02/16 03:51:59;;;;;;;1.77;1.47;;;5.00;99.90;;;;;;6245691;23;20102;-77
2022/02/16 03:54:25;;;;;;;9.10;3.43;;;5.10;99.90;;;;;;6242260;23;20024;-79
2022/02/16 03:56:51;;;;;;;3.97;2.73;;;5.10;99.90;;;;;;6242644;23;20078;-78
2022/02/16 03:59:17;;;;;;;4.53;2.63;;;5.10;99.90;;;;;;6237308;23;20039;-79
2022/02/16 04:01:43;;;;;;;2.87;2.03;;;5.20;99.90;;;;;;6242963;23;20040;-79
2022/02/16 04:04:10;;;;;;;4.83;2.43;;;5.20;99.90;;;;;;6242367;23;20032;-77
2022/02/16 04:06:37;;;;;;;1.90;1.80;;;5.20;99.90;;;;;;6243605;23;20074;-77
2022/02/16 04:09:03;;;;;;;3.20;2.20;;;5.20;99.90;;;;;;6246067;23;20027;-77
2022/02/16 04:11:29;;;;;;;2.40;1.80;;;5.30;99.90;;;;;;6249836;23;20031;-76
2022/02/16 04:13:56;;;;;;;2.23;2.03;;;5.30;99.90;;;;;;6254302;23;20016;-77
2022/02/16 04:16:23;;;;;;;3.33;2.20;;;5.30;99.90;;;;;;6252674;23;20020;-77
2022/02/16 04:18:49;;;;;;;2.40;1.90;;;5.40;99.90;;;;;;6243448;23;20031;-78
2022/02/16 04:21:16;;;;;;;2.40;2.20;;;5.40;99.90;;;;;;6243392;23;20097;-78
2022/02/16 04:23:44;;;;;;;2.60;1.77;;;5.40;99.90;;;;;;6247542;23;20028;-77
2022/02/16 04:26:10;;;;;;;2.53;2.20;;;5.40;99.90;;;;;;6245774;23;20031;-79
2022/02/16 04:28:40;;;;;;;5.67;2.30;;;5.50;99.90;;;;;;6245224;23;20525;-78
2022/02/16 04:31:08;;;;;;;3.43;2.03;;;5.50;99.90;;;;;;6242875;23;20012;-78
2022/02/16 04:33:34;;;;;;;3.60;2.00;;;5.50;99.90;;;;;;6242344;23;20024;-79
2022/02/16 04:36:00;;;;;;;3.83;1.83;;;5.50;99.90;;;;;;6242244;23;20031;-77
2022/02/16 04:38:26;;;;;;;3.03;2.40;;;5.50;99.90;;;;;;6242505;23;20023;-77
2022/02/16 04:40:53;;;;;;;2.90;2.47;;;5.50;99.90;;;;;;6243012;23;20323;-78
2022/02/16 04:43:19;;;;;;;1.40;1.30;;;5.50;99.90;;;;;;6242583;23;20067;-79
2022/02/16 04:45:47;;;;;;;2.03;1.83;;;5.60;99.90;;;;;;6242935;23;20038;-79
2022/02/16 04:48:15;;;;;;;2.07;1.40;;;5.50;99.90;;;;;;6242489;23;20024;-78
2022/02/16 04:50:43;;;;;;;4.23;2.23;;;5.50;99.90;;;;;;6242804;23;20051;-77
2022/02/16 04:53:10;;;;;;;6.60;2.60;;;5.60;99.90;;;;;;6243076;23;20020;-78
2022/02/16 04:55:39;;;;;;;2.77;2.53;;;5.60;99.90;;;;;;6242503;23;20024;-78
2022/02/16 04:58:09;;;;;;;5.73;1.90;;;5.60;99.90;;;;;;6242563;23;20035;-78
2022/02/16 05:00:40;;;;;;;1.80;1.70;;;5.60;99.90;;;;;;6242277;23;20013;-78
2022/02/16 05:03:10;;;;;;;2.22;1.77;;;5.60;99.90;;;;;;6242982;23;20028;-79
2022/02/16 05:05:39;;;;;;;1.67;1.57;;;5.60;99.90;;;;;;6242563;23;20040;-79
2022/02/16 05:08:05;;;;;;;3.37;1.60;;;5.60;99.90;;;;;;6241359;23;20355;-79
2022/02/16 05:10:34;;;;;;;4.40;2.40;;;5.60;99.90;;;;;;6242835;23;20035;-78
2022/02/16 05:13:12;;;;;;;3.00;1.70;;;5.70;99.90;;;;;;6242500;23;20031;-77
2022/02/16 05:15:38;;;;;;;2.43;2.10;;;5.70;99.90;;;;;;6241067;23;20103;-77
2022/02/16 05:18:04;;;;;;;1.70;1.57;;;5.70;99.90;;;;;;6241942;23;20024;-77
2022/02/16 05:20:30;;;;;;;2.27;2.07;;;5.70;99.90;;;;;;6242501;23;20070;-78
2022/02/16 05:22:56;;;;;;;4.10;2.07;;;5.70;99.90;;;;;;6241823;23;20024;-78
2022/02/16 05:25:22;;;;;;;3.07;2.67;;;5.70;99.90;;;;;;6241909;23;20032;-77
2022/02/16 05:27:48;;;;;;;2.40;2.07;;;5.70;99.90;;;;;;6241896;23;20028;-78
2022/02/16 05:30:15;;;;;;;5.60;2.20;;;5.70;99.90;;;;;;6241599;23;20069;-78
2022/02/16 05:32:41;;;;;;;4.23;2.20;;;5.70;99.90;;;;;;6242355;23;20020;-77
2022/02/16 05:35:09;;;;;;;4.30;2.63;;;5.70;99.90;;;;;;6241708;23;20379;-77
2022/02/16 05:37:35;;;;;;;2.37;2.07;;;5.80;99.90;;;;;;6241878;23;20028;-79
2022/02/16 05:40:01;;;;;;;2.07;1.87;;;5.80;99.90;;;;;;6242310;23;20512;-78
2022/02/16 05:42:27;;;;;;;1.87;1.77;;;5.80;99.90;;;;;;6242403;23;20024;-77
2022/02/16 05:44:53;;;;;;;1.50;1.40;;;5.80;99.90;;;;;;6242303;23;20573;-77
2022/02/16 05:47:22;;;;;;;3.70;2.30;;;5.80;99.90;;;;;;6242976;23;20017;-78
2022/02/16 05:49:48;;;;;;;3.13;2.50;;;5.80;99.90;;;;;;6243677;23;20024;-78
2022/02/16 05:52:14;;;;;;;2.00;1.80;;;5.80;99.90;;;;;;6242168;23;20028;-78
2022/02/16 05:54:40;;;;;;;2.10;1.90;;;5.80;99.90;;;;;;6242044;23;20316;-77
2022/02/16 05:57:06;;;;;;;2.83;1.73;;;5.90;99.90;;;;;;6241852;23;20027;-78
2022/02/16 05:59:34;;;;;;;2.60;1.40;;;5.90;99.90;;;;;;6242316;23;20016;-78
2022/02/16 06:02:03;;;;;;;2.27;1.80;;;5.90;99.90;;;;;;6242057;23;20023;-77
2022/02/16 06:04:30;;;;;;;2.03;1.93;;;5.90;99.90;;;;;;6242201;23;20024;-78
2022/02/16 06:06:56;;;;;;;6.10;1.80;;;5.90;99.90;;;;;;6241832;23;20474;-78
2022/02/16 06:09:22;;;;;;;8.77;1.80;;;5.90;99.90;;;;;;6241094;23;20104;-78
2022/02/16 06:11:48;;;;;;;2.37;2.17;;;5.90;99.90;;;;;;6242084;23;20020;-77
2022/02/16 06:14:14;;;;;;;1.90;1.60;;;5.90;99.90;;;;;;6243338;23;20035;-79
2022/02/16 06:16:40;;;;;;;3.97;1.70;;;5.90;99.90;;;;;;6241581;23;20027;-77
2022/02/16 06:19:06;;;;;;;4.73;1.97;;;5.90;99.90;;;;;;6242023;23;20335;-78
2022/02/16 06:21:32;;;;;;;2.20;2.00;;;5.90;99.90;;;;;;6243120;23;20020;-78
2022/02/16 06:23:59;;;;;;;2.10;1.73;;;5.90;99.90;;;;;;6242283;23;20451;-78
2022/02/16 06:26:25;;;;;;;4.53;1.80;;;5.90;99.90;;;;;;6241010;23;20030;-77
2022/02/16 06:28:51;;;;;;;3.33;1.70;;;5.90;99.90;;;;;;6241546;23;20024;-78
2022/02/16 06:31:17;;;;;;;1.57;1.43;;;5.90;99.90;;;;;;6236227;23;20055;-78
2022/02/16 06:33:43;;;;;;;2.37;1.70;;;5.80;99.90;;;;;;6241247;23;20039;-78
2022/02/16 06:36:09;;;;;;;2.33;2.13;;;5.70;99.90;;;;;;6241119;23;20070;-78
2022/02/16 06:38:36;;;;;;;2.37;2.17;;;5.70;99.90;;;;;;6242068;23;20474;-78
2022/02/16 06:41:04;;;;;;;2.83;1.93;;;5.70;99.90;;;;;;6242058;23;20016;-78
2022/02/16 06:43:30;;;;;;;1.93;1.67;;;5.60;99.90;;;;;;6243722;23;20351;-78
2022/02/16 06:45:56;;;;;;;3.37;1.70;;;5.60;99.90;;;;;;6242091;23;20027;-80
2022/02/16 06:48:22;;;;;;;1.87;1.70;;;5.50;99.90;;;;;;6242689;23;20016;-78
2022/02/16 06:50:48;;;;;;;3.87;1.53;;;5.50;99.90;;;;;;6243127;23;20024;-80
2022/02/16 06:53:14;;;;;;;1.67;1.57;;;5.50;99.90;;;;;;6242952;23;20347;-81
2022/02/16 06:55:43;;;;;;;2.23;2.03;;;5.50;99.90;;;;;;6242590;23;20341;-79
2022/02/16 06:58:09;;;;;;;3.87;1.70;;;5.50;99.90;;;;;;6242521;23;20020;-79
2022/02/16 07:00:35;;;;;;;2.47;1.90;;;5.50;99.90;;;;;;6241325;23;20040;-80
2022/02/16 07:03:01;;;;;;;3.10;1.60;;;5.40;99.90;;;;;;6241587;23;20028;-78
2022/02/16 07:05:27;;;;;;;2.30;1.80;;;5.40;99.90;;;;;;6240928;23;20062;-78
2022/02/16 07:07:53;;;;;;;2.60;1.57;;;5.40;99.90;;;;;;6241897;23;20020;-77
2022/02/16 07:10:19;;;;;;;1.90;1.53;;;5.40;99.90;;;;;;6241077;23;20095;-80
2022/02/16 07:12:46;;;;;;;1.60;1.50;;;5.30;99.90;;;;;;6241354;23;20039;-78
2022/02/16 07:15:12;;;;;;;1.93;1.70;;;5.30;99.90;;;;;;6241412;23;20337;-78
2022/02/16 07:17:39;;;;;;;2.30;1.20;;;5.30;99.90;;;;;;6241668;23;20458;-77
2022/02/16 07:20:08;;;;;;;2.13;1.93;;;5.30;99.90;;;;;;6240915;23;20017;-77
2022/02/16 07:22:38;;;;;;;2.30;1.60;;;5.30;99.90;;;;;;6242966;22;20035;-77
2022/02/16 07:25:05;;;;;;;1.43;1.30;;;5.30;99.90;;;;;;6242589;23;20047;-77
2022/02/16 07:27:31;;;;;;;1.50;1.40;;;5.30;99.90;;;;;;6242556;23;20020;-77
2022/02/16 07:29:57;;;;;;;1.40;1.30;;;5.20;99.90;;;;;;6242484;23;20439;-78
2022/02/16 07:32:23;;;;;;;1.60;1.43;;;5.30;99.90;;;;;;6242632;23;20463;-77
2022/02/16 07:34:49;;;;;;;1.50;1.40;;;5.30;99.90;;;;;;6242286;23;20071;-78
2022/02/16 07:37:18;;;;;;;2.20;1.40;;;5.30;99.90;;;;;;6242523;23;20020;-76
2022/02/16 07:39:44;;;;;;;1.20;1.10;;;5.30;99.90;;;;;;6242589;23;20043;-78
2022/02/16 07:42:10;;;;;;;1.13;1.03;;;5.30;99.90;;;;;;6242679;23;20035;-78
2022/02/16 07:44:41;;;;;;;1.57;1.47;;;5.30;99.90;;;;;;6242742;23;20063;-78
2022/02/16 07:47:09;;;;;;;2.30;1.80;;;5.30;99.90;;;;;;6242690;23;20051;-78
2022/02/16 07:49:35;;;;;;;1.17;1.07;;;5.30;99.90;;;;;;6242044;23;20032;-76
2022/02/16 07:52:02;;;;;;;2.80;1.13;;;5.40;99.90;;;;;;6242735;23;20276;-77
2022/02/16 07:54:28;;;;;;;1.40;1.13;;;5.40;99.90;;;;;;6238765;23;20020;-77
2022/02/16 07:56:54;;;;;;;1.43;1.10;;;5.40;99.90;;;;;;6242377;23;20024;-78
2022/02/16 07:59:20;;;;;;;1.40;1.30;;;5.50;99.90;;;;;;6242028;23;20028;-77
2022/02/16 08:01:46;;;;;;;1.50;1.23;;;5.50;99.90;;;;;;6242563;23;20127;-77
2022/02/16 08:04:16;;;;;;;1.63;1.13;;;5.50;99.90;;;;;;6242448;23;20455;-77
2022/02/16 08:06:42;;;;;;;1.20;1.13;;;5.50;99.90;;;;;;6242561;23;20336;-78
2022/02/16 08:09:10;;;;;;;2.50;1.17;;;5.60;99.90;;;;;;6241544;23;20318;-77
2022/02/16 08:11:38;;;;;;;1.33;1.20;;;5.70;99.90;;;;;;6241788;23;20027;-78
2022/02/16 08:14:05;;;;;;;2.50;1.30;;;5.80;99.90;;;;;;6242146;23;20039;-78
2022/02/16 08:16:31;;;;;;;1.30;1.20;;;5.80;99.90;;;;;;6242224;23;20020;-79
2022/02/16 08:18:57;;;;;;;1.77;1.63;;;5.90;99.90;;;;;;6242323;23;20027;-79
2022/02/16 08:21:24;;;;;;;1.37;1.37;;;5.80;99.90;;;;;;6242243;23;20925;-79
2022/02/16 08:24:07;;;;;;;1.07;0.97;;;5.80;99.90;;;;;;6241805;23;20027;-80
2022/02/16 08:26:33;;;;;;;1.03;0.87;;;5.80;99.90;;;;;;6242503;23;20454;-79
2022/02/16 08:28:59;;;;;;;1.20;1.10;;;5.80;99.90;;;;;;6242362;23;20020;-78
2022/02/16 08:31:25;;;;;;;5.47;1.20;;;5.80;99.90;;;;;;6242294;23;20032;-79
2022/02/16 08:33:51;;;;;;;0.77;0.70;;;5.90;99.90;;;;;;6242160;23;20323;-78
2022/02/16 08:36:17;;;;;;;1.00;0.80;;;5.90;99.90;;;;;;6243060;23;20439;-79
2022/02/16 08:38:46;;;;;;;1.17;0.83;;;6.00;99.90;;;;;;6241750;23;20465;-79
2022/02/16 08:41:13;;;;;;;0.80;0.80;;;6.00;99.90;;;;;;6242010;23;20024;-77
2022/02/16 08:43:39;;;;;;;1.10;0.83;;;6.00;99.90;;;;;;6241754;23;20024;-78
2022/02/16 08:46:05;;;;;;;1.07;0.90;;;6.10;99.90;;;;;;6242557;23;20024;-78
2022/02/16 08:48:31;;;;;;;0.83;0.70;;;6.10;99.90;;;;;;6242463;23;20020;-78
2022/02/16 08:50:58;;;;;;;0.70;0.60;;;6.20;99.90;;;;;;6242033;23;20025;-79
2022/02/16 08:53:26;;;;;;;1.30;0.80;;;6.30;99.90;;;;;;6242110;23;20027;-78
2022/02/16 08:55:52;;;;;;;1.37;0.93;;;6.10;99.90;;;;;;6242418;23;20020;-78
2022/02/16 08:58:21;;;;;;;1.10;1.03;;;6.10;99.90;;;;;;6242873;23;20470;-78
2022/02/16 09:00:50;;;;;;;0.60;0.60;;;6.10;99.90;;;;;;6242345;23;20020;-79
2022/02/16 09:03:16;;;;;;;0.80;0.70;;;6.20;99.90;;;;;;6242082;23;20016;-79
2022/02/16 09:05:43;;;;;;;0.77;0.67;;;6.10;99.90;;;;;;6241734;23;20035;-78
2022/02/16 09:08:09;;;;;;;1.47;0.80;;;6.20;99.90;;;;;;6242663;23;20020;-78
2022/02/16 09:10:35;;;;;;;0.87;0.70;;;6.20;99.90;;;;;;6239880;23;20020;-78
2022/02/16 09:13:02;;;;;;;0.73;0.70;;;6.30;99.90;;;;;;6242329;23;20078;-77
2022/02/16 09:15:28;;;;;;;0.60;0.60;;;6.30;99.90;;;;;;6242081;23;20332;-78
2022/02/16 09:17:54;;;;;;;1.47;0.40;;;6.30;99.90;;;;;;6242390;23;20020;-79
2022/02/16 09:20:20;;;;;;;1.73;0.80;;;6.40;99.90;;;;;;6242340;23;20020;-79
2022/02/16 09:22:46;;;;;;;0.40;0.40;;;6.40;99.90;;;;;;6242459;23;20032;-78
2022/02/16 09:25:13;;;;;;;0.77;0.53;;;6.40;99.90;;;;;;6241978;23;20027;-79
2022/02/16 09:27:39;;;;;;;0.80;0.50;;;6.50;99.90;;;;;;6242556;23;20051;-78
2022/02/16 09:30:07;;;;;;;0.60;0.60;;;6.50;99.90;;;;;;6242124;23;20047;-78
2022/02/16 09:32:33;;;;;;;0.57;0.57;;;6.50;99.90;;;;;;6241856;23;20439;-78
2022/02/16 09:34:59;;;;;;;0.83;0.60;;;6.50;99.90;;;;;;6241765;23;20059;-79
2022/02/16 09:37:26;;;;;;;0.50;0.50;;;6.50;99.90;;;;;;6240766;23;20028;-79
2022/02/16 09:39:53;;;;;;;0.40;0.40;;;6.50;99.90;;;;;;6242385;23;20020;-78
2022/02/16 09:42:19;;;;;;;0.53;0.53;;;6.50;99.90;;;;;;6241598;23;20016;-78
2022/02/16 09:44:50;;;;;;;0.40;0.40;;;6.60;99.90;;;;;;6241043;23;20446;-79
2022/02/16 09:47:17;;;;;;;0.50;0.50;;;6.70;99.90;;;;;;6241591;23;20528;-78
2022/02/16 09:49:43;;;;;;;0.67;0.60;;;6.70;99.90;;;;;;6242365;23;20094;-80
2022/02/16 09:52:11;;;;;;;1.80;1.00;;;6.70;99.90;;;;;;6242931;23;20020;-78
2022/02/16 09:54:37;;;;;;;0.53;0.23;;;6.80;99.90;;;;;;6242420;23;20028;-79
2022/02/16 09:57:04;;;;;;;0.73;0.50;;;6.80;99.90;;;;;;6242606;23;20051;-78
2022/02/16 09:59:30;;;;;;;0.30;0.30;;;6.80;99.90;;;;;;6242463;23;20478;-78
2022/02/16 10:01:59;;;;;;;0.50;0.40;;;6.90;99.90;;;;;;6243312;23;20031;-79
2022/02/16 10:04:27;;;;;;;1.53;0.63;;;6.90;99.90;;;;;;6242699;23;20024;-79
2022/02/16 10:06:54;;;;;;;0.47;0.47;;;6.90;99.90;;;;;;6236026;23;20016;-78
2022/02/16 10:09:27;;;;;;;0.83;0.80;;;6.90;99.90;;;;;;6243848;23;20060;-78
2022/02/16 10:11:55;;;;;;;0.30;0.30;;;6.80;99.90;;;;;;6243221;23;20054;-77
2022/02/16 10:14:25;;;;;;;2.10;0.93;;;6.80;99.90;;;;;;6241589;23;20028;-78
2022/02/16 10:16:51;;;;;;;0.60;0.60;;;6.70;99.90;;;;;;6242722;23;20028;-77
2022/02/16 10:19:18;;;;;;;2.00;0.40;;;6.70;99.90;;;;;;6241847;23;20016;-78
2022/02/16 10:22:14;;;;;;;0.50;0.50;;;6.70;99.90;;;;;;6242537;23;20095;-78
2022/02/16 10:24:41;;;;;;;0.60;0.60;;;6.70;99.90;;;;;;6119193;23;20073;-78
2022/02/16 10:27:07;;;;;;;1.70;0.70;;;6.60;99.90;;;;;;6213191;23;20028;-78
2022/02/16 10:29:34;;;;;;;2.30;1.27;;;6.60;99.90;;;;;;6241430;23;20054;-78
2022/02/16 10:32:02;;;;;;;0.57;0.57;;;6.50;99.90;;;;;;6242487;23;20023;-78
2022/02/16 10:34:49;;;;;;;0.70;0.70;;;6.50;99.90;;;;;;6239653;23;20079;-79
2022/02/16 10:37:18;;;;;;;1.03;0.87;;;6.40;99.90;;;;;;6241498;23;20016;-78
2022/02/16 10:39:59;;;;;;;0.60;0.60;;;6.50;99.90;;;;;;6241722;23;20020;-77
2022/02/16 10:42:25;;;;;;;;;;;6.30;99.90;;;;;;6242425;23;20024;-78
2022/02/16 10:45:05;;;;;;;0.73;0.73;;;6.30;99.90;;;;;;6241597;23;19916;-77
2022/02/16 10:47:51;;;;;;;3.60;0.53;;;6.20;99.90;;;;;;6241794;23;20335;-77
2022/02/16 10:50:17;;;;;;;0.37;0.37;;;6.10;99.90;;;;;;6241314;23;20074;-76
2022/02/16 10:52:49;;;;;;;0.67;0.67;;;6.10;99.90;;;;;;6242000;23;20054;-79
2022/02/16 10:55:16;;;;;;;0.93;0.83;;;6.00;99.90;;;;;;6241697;23;20020;-77
2022/02/16 10:57:42;;;;;;;0.93;0.70;;;6.00;99.90;;;;;;6242463;23;20312;-79
2022/02/16 11:00:09;;;;;;;0.70;0.70;;;6.00;99.90;;;;;;6242900;23;20027;-78
2022/02/16 11:02:39;;;;;;;0.90;0.80;;;6.00;99.90;;;;;;6242606;23;20016;-79
2022/02/16 11:05:06;;;;;;;0.87;0.83;;;6.00;99.90;;;;;;6242696;23;20028;-78
2022/02/16 11:07:33;;;;;;;1.00;0.80;;;6.00;99.90;;;;;;6243224;23;20481;-78
2022/02/16 11:10:03;;;;;;;1.10;1.00;;;6.10;99.90;;;;;;6242965;23;20020;-79
2022/02/16 11:12:31;;;;;;;0.80;0.80;;;6.10;99.90;;;;;;6243185;23;20016;-78
2022/02/16 11:14:58;;;;;;;2.67;1.00;;;6.10;99.90;;;;;;6242532;23;20043;-78
2022/02/16 11:17:24;;;;;;;0.93;0.83;;;6.10;99.90;;;;;;6242646;23;20020;-78
2022/02/16 11:19:50;;;;;;;0.77;0.77;;;6.10;99.90;;;;;;6242748;23;20059;-78
2022/02/16 11:22:19;;;;;;;2.27;1.60;;;6.10;99.90;;;;;;6243425;23;20020;-77
2022/02/16 11:24:49;;;;;;;0.97;0.60;;;6.10;99.90;;;;;;6242814;23;20408;-78
2022/02/16 11:27:26;;;;;;;0.80;0.80;;;6.20;99.90;;;;;;6242701;23;20024;-78
2022/02/16 11:29:52;;;;;;;2.00;0.73;;;6.20;99.90;;;;;;6242299;23;20016;-80
2022/02/16 11:32:25;;;;;;;3.63;1.13;;;6.20;99.90;;;;;;6243171;23;20331;-80
2022/02/16 11:35:13;;;;;;;0.83;0.63;;;6.30;99.90;;;;;;6242944;23;20024;-78
2022/02/16 11:37:41;;;;;;;3.10;0.93;;;6.30;99.90;;;;;;6242682;23;20024;-77
2022/02/16 11:40:08;;;;;;;1.57;0.70;;;6.30;99.90;;;;;;6242859;23;20021;-77
2022/02/16 11:42:58;;;;;;;1.10;0.67;;;6.30;99.90;;;;;;6237597;23;20020;-77
2022/02/16 11:45:42;;;;;;;0.57;0.53;;;6.30;99.90;;;;;;6242575;23;20024;-79
2022/02/16 11:48:09;;;;;;;1.40;1.00;;;6.30;99.90;;;;;;6243008;23;20359;-79
2022/02/16 11:50:37;;;;;;;0.47;0.47;;;6.40;99.90;;;;;;6243041;23;20021;-79
2022/02/16 11:53:05;;;;;;;0.90;0.70;;;6.40;99.90;;;;;;6242390;23;20020;-80
2022/02/16 11:55:33;;;;;;;0.87;0.73;;;6.30;99.90;;;;;;6243016;23;20023;-77
2022/02/16 11:58:17;;;;;;;1.17;1.07;;;6.30;99.90;;;;;;6242834;23;20020;-79
2022/02/16 12:00:51;;;;;;;1.47;0.80;;;6.40;99.90;;;;;;6242197;23;20074;-79
2022/02/16 12:03:23;;;;;;;1.10;1.00;;;6.40;99.90;;;;;;6242906;23;20028;-77
2022/02/16 12:05:55;;;;;;;;;;;6.30;99.90;;;;;;6243028;23;20028;-78
2022/02/16 12:08:23;;;;;;;0.87;0.83;;;6.30;99.90;;;;;;6242973;23;19922;-79
2022/02/16 12:10:52;;;;;;;1.20;1.10;;;6.20;99.90;;;;;;6242898;23;20029;-77
2022/02/16 12:13:27;;;;;;;1.07;0.97;;;6.20;99.90;;;;;;6237680;22;20024;-79
2022/02/16 12:15:58;;;;;;;1.67;1.00;;;6.20;99.90;;;;;;6243767;22;20099;-79
2022/02/16 12:18:25;;;;;;;2.63;1.20;;;6.10;99.90;;;;;;6243848;23;20039;-80
2022/02/16 12:20:52;;;;;;;1.63;1.40;;;6.20;99.90;;;;;;6237272;22;20016;-79
2022/02/16 12:23:18;;;;;;;2.03;1.53;;;6.20;99.90;;;;;;6244304;23;20028;-81
2022/02/16 12:25:44;;;;;;;1.60;1.40;;;6.20;99.90;;;;;;6246400;23;20024;-80
2022/02/16 12:28:10;;;;;;;1.77;1.40;;;6.30;99.90;;;;;;6243214;23;20027;-79
2022/02/16 12:30:39;;;;;;;1.53;1.23;;;6.30;99.90;;;;;;6242246;23;20016;-79
2022/02/16 12:33:19;;;;;;;1.30;1.20;;;6.30;99.90;;;;;;6243099;23;20020;-79
2022/02/16 12:35:46;;;;;;;2.53;1.60;;;6.30;99.90;;;;;;6242098;23;20028;-79
2022/02/16 12:38:12;;;;;;;1.60;1.50;;;6.30;99.90;;;;;;6243054;23;20070;-79
2022/02/16 12:40:39;;;;;;;4.10;1.50;;;6.30;99.90;;;;;;6243052;23;20458;-79
2022/02/16 12:43:10;;;;;;;1.30;1.20;;;6.40;99.90;;;;;;6243108;23;20035;-78
2022/02/16 12:45:37;;;;;;;1.35;1.30;;;6.30;99.90;;;;;;6243430;23;20020;-79
2022/02/16 12:48:03;;;;;;;2.07;1.87;;;6.40;99.90;;;;;;6243329;23;20047;-78
2022/02/16 12:50:30;;;;;;;3.30;1.70;;;6.40;99.90;;;;;;6243052;23;20020;-78
2022/02/16 12:52:58;;;;;;;2.03;1.67;;;6.40;99.90;;;;;;6234528;22;20027;-79
2022/02/16 12:55:25;;;;;;;1.57;1.47;;;6.50;99.90;;;;;;6239417;23;20109;-78
2022/02/16 12:57:53;;;;;;;1.67;1.47;;;6.50;99.90;;;;;;6242538;23;20120;-79
2022/02/16 13:03:08;;;;;;;1.50;1.40;;;6.50;99.90;;;;;;6232835;23;20059;-79